Bookmark and Share
Track history (hours):
 

Vera Bisso

More information available from US FCC via Universal Licensing System and Coast Guard Vessel Documentation Center.

Last reported at 2014-Apr-16 21:33 UTC. Time now 2014-Apr-16 22:27 UTC.
Position N 30°03' W 090°34'.

Length 30 m; draft 6 m.

Type: Tug. MMSI: 367001730.

NotesDate/timePositionNaut miles runAvg speedWind from/ knotsBaromVisibWave heightAir tempDewpointWater temp
2014-Apr-16 21:33N 30°03' W 090°34'0 0.0
2014-Apr-16 20:33N 30°03' W 090°34'0 0.0
2014-Apr-16 19:33N 30°03' W 090°34'0 0.0
2014-Apr-16 18:33N 30°03' W 090°34'0 0.0
2014-Apr-16 17:33N 30°03' W 090°34'0 0.0
2014-Apr-16 16:33N 30°03' W 090°34'0 0.0
2014-Apr-16 15:33N 30°03' W 090°34'0 0.0
2014-Apr-16 14:33N 30°03' W 090°34'0 0.0
2014-Apr-16 13:33N 30°03' W 090°34'0 0.0
2014-Apr-16 12:33N 30°03' W 090°34'0 0.0
2014-Apr-16 11:33N 30°03' W 090°34'1 1.0
2014-Apr-16 10:33N 30°03' W 090°35'1 1.0
2014-Apr-16 09:33N 30°03' W 090°34'0 0.0
2014-Apr-16 08:33N 30°03' W 090°34'0 0.0
2014-Apr-16 07:33N 30°03' W 090°34'0 0.0
2014-Apr-16 06:33N 30°03' W 090°34'0 0.0
2014-Apr-16 05:33N 30°03' W 090°34'0 0.0
2014-Apr-16 04:33N 30°03' W 090°34'0 0.0
2014-Apr-16 03:33N 30°03' W 090°34'0 0.4
2014-Apr-16 02:33N 30°03' W 090°34'2 2.3
2014-Apr-16 01:33N 30°03' W 090°36'1 1.3
2014-Apr-16 00:33N 30°03' W 090°35'3 2.6
2014-Apr-15 23:33N 30°03' W 090°32'1 1.4
2014-Apr-15 22:33N 30°03' W 090°33'0 0.0
2014-Apr-15 21:33N 30°03' W 090°33'0 0.0
2014-Apr-15 20:33N 30°03' W 090°33'0 0.0
2014-Apr-15 19:33N 30°03' W 090°33'0 0.0
2014-Apr-15 18:33N 30°03' W 090°33'1 0.6
2014-Apr-15 17:33N 30°03' W 090°33'0 0.0
2014-Apr-15 16:33N 30°03' W 090°33'0 0.0
2014-Apr-15 15:33N 30°03' W 090°33'0 0.0
2014-Apr-15 14:33N 30°03' W 090°33'0 0.1
2014-Apr-15 12:34N 30°03' W 090°33'6 3.0
2014-Apr-15 10:34N 30°03' W 090°40'0 0.0
2014-Apr-15 09:34N 30°03' W 090°40'0 0.0
2014-Apr-15 08:34N 30°03' W 090°40'0 0.0
2014-Apr-15 07:34N 30°03' W 090°40'0 0.0
2014-Apr-15 06:34N 30°03' W 090°40'0 0.0
2014-Apr-15 05:34N 30°03' W 090°40'0 0.0
2014-Apr-15 03:34N 30°03' W 090°40'0 0.0
2014-Apr-15 02:34N 30°03' W 090°40'0 0.0
2014-Apr-15 01:33N 30°03' W 090°40'2 1.6
2014-Apr-15 00:33N 30°02' W 090°41'0 0.2
2014-Apr-14 23:33N 30°02' W 090°42'7 7.2
2014-Apr-14 22:34N 30°03' W 090°33'0 0.0
2014-Apr-14 21:33N 30°03' W 090°33'2 1.5
2014-Apr-14 20:30N 30°03' W 090°32'2 2.4
2014-Apr-14 19:34N 30°03' W 090°34'0 0.0
2014-Apr-14 18:33N 30°03' W 090°34'0 0.0
2014-Apr-14 17:34N 30°03' W 090°34'0 0.0
2014-Apr-14 16:33N 30°03' W 090°34'1 0.7
2014-Apr-14 15:33N 30°03' W 090°35'1 0.8
2014-Apr-14 14:33N 30°03' W 090°34'0 0.0
2014-Apr-14 13:33N 30°03' W 090°34'1 0.4
2014-Apr-14 11:33N 30°03' W 090°33'7 6.5
2014-Apr-14 10:33N 29°60' W 090°27'2 2.0
2014-Apr-14 09:34N 29°60' W 090°25'1 0.5
2014-Apr-14 08:34N 29°59' W 090°24'0 0.5
2014-Apr-14 07:34N 29°60' W 090°24'0 0.0
2014-Apr-14 06:33N 29°60' W 090°24'4 3.9
2014-Apr-14 05:33N 30°01' W 090°28'5 0.8
2014-Apr-13 22:33N 30°03' W 090°34'0 0.0
2014-Apr-13 21:33N 30°03' W 090°34'1 0.7
2014-Apr-13 20:33N 30°03' W 090°35'1 0.7
2014-Apr-13 19:33N 30°03' W 090°34'0 0.0
2014-Apr-13 18:33N 30°03' W 090°34'0 0.0
2014-Apr-13 17:33N 30°03' W 090°34'0 0.0
2014-Apr-13 16:33N 30°03' W 090°34'0 0.0
2014-Apr-13 15:33N 30°03' W 090°34'0 0.0
2014-Apr-13 14:33N 30°03' W 090°34'0 0.0
2014-Apr-13 13:33N 30°03' W 090°34'0 0.0
2014-Apr-13 12:33N 30°03' W 090°34'0 0.0
2014-Apr-13 11:33N 30°03' W 090°34'0 0.0
2014-Apr-13 10:33N 30°03' W 090°34'0 0.0
2014-Apr-13 09:33N 30°03' W 090°34'0 0.0
2014-Apr-13 08:33N 30°03' W 090°34'1 1.3
2014-Apr-13 07:33N 30°03' W 090°36'1 1.3
2014-Apr-13 06:33N 30°03' W 090°34'1 0.6
2014-Apr-13 05:33N 30°03' W 090°33'0 0.0
2014-Apr-13 04:33N 30°03' W 090°33'0 0.0
2014-Apr-13 03:33N 30°03' W 090°33'0 0.0
2014-Apr-13 02:33N 30°03' W 090°33'0 0.0
2014-Apr-13 01:33N 30°03' W 090°33'0 0.0
2014-Apr-13 00:33N 30°03' W 090°33'0 0.0
2014-Apr-12 23:33N 30°03' W 090°33'0 0.0
2014-Apr-12 22:33N 30°03' W 090°33'0 0.0
2014-Apr-12 21:33N 30°03' W 090°33'0 0.0
2014-Apr-12 20:33N 30°03' W 090°33'6 6.4
2014-Apr-12 19:33N 30°03' W 090°41'0 0.5
2014-Apr-12 18:33N 30°02' W 090°41'4 3.9
2014-Apr-12 17:33N 30°02' W 090°37'3 3.0
2014-Apr-12 16:33N 30°03' W 090°33'1 1.4
2014-Apr-12 15:33N 30°03' W 090°32'0 0.1
2014-Apr-12 14:33N 30°03' W 090°32'2 2.0
2014-Apr-12 13:33N 30°03' W 090°34'0 0.0
2014-Apr-12 12:33N 30°03' W 090°34'0 0.0
2014-Apr-12 11:33N 30°03' W 090°34'0 0.0
2014-Apr-12 10:33N 30°03' W 090°34'0 0.0
2014-Apr-12 09:33N 30°03' W 090°34'0 0.0
2014-Apr-12 08:33N 30°03' W 090°34'0 0.0
2014-Apr-12 07:33N 30°03' W 090°34'0 0.0
2014-Apr-12 06:33N 30°03' W 090°34'0 0.0
2014-Apr-12 05:33N 30°03' W 090°34'0 0.0
2014-Apr-12 04:33N 30°03' W 090°34'0 0.0
2014-Apr-12 03:33N 30°03' W 090°34'0 0.0
2014-Apr-12 02:33N 30°03' W 090°34'0 0.0
2014-Apr-12 01:33N 30°03' W 090°34'0 0.0
2014-Apr-12 00:33N 30°03' W 090°34'0 0.0
2014-Apr-11 23:33N 30°03' W 090°34'0 0.0
2014-Apr-11 22:33N 30°03' W 090°34'0 0.0
2014-Apr-11 21:33N 30°03' W 090°34'0 0.0
2014-Apr-11 20:33N 30°03' W 090°34'1 0.9
2014-Apr-11 19:05N 30°03' W 090°36'0 0.1
2014-Apr-11 18:33N 30°03' W 090°36'1 1.2
2014-Apr-11 17:33N 30°03' W 090°34'0 0.0
2014-Apr-11 16:33N 30°03' W 090°34'0 0.0
2014-Apr-11 15:33N 30°03' W 090°34'0 0.0
2014-Apr-11 14:33N 30°03' W 090°34'5 2.3
2014-Apr-11 12:25N 30°03' W 090°40'2 2.8
2014-Apr-11 11:33N 30°02' W 090°37'3 3.0
2014-Apr-11 10:33N 30°03' W 090°34'0 0.0
2014-Apr-11 09:33N 30°03' W 090°34'0 0.0
2014-Apr-11 08:33N 30°03' W 090°34'0 0.0
2014-Apr-11 07:33N 30°03' W 090°34'0 0.0
2014-Apr-11 06:33N 30°03' W 090°34'0 0.0
2014-Apr-11 05:33N 30°03' W 090°34'0 0.0
2014-Apr-11 04:33N 30°03' W 090°34'0 0.0
2014-Apr-11 03:33N 30°03' W 090°34'0 0.0
2014-Apr-11 02:33N 30°03' W 090°34'0 0.0
2014-Apr-11 01:33N 30°03' W 090°34'2 1.5
2014-Apr-11 00:33N 30°03' W 090°36'1 1.1
2014-Apr-10 23:33N 30°03' W 090°35'0 0.4
2014-Apr-10 22:33N 30°03' W 090°34'0 0.0
2014-Apr-10 21:33N 30°03' W 090°34'0 0.0
2014-Apr-10 20:33N 30°03' W 090°34'1 0.6
2014-Apr-10 19:33N 30°03' W 090°35'0 0.1
2014-Apr-10 18:33N 30°03' W 090°35'0 0.0
2014-Apr-10 17:33N 30°03' W 090°35'1 0.7
2014-Apr-10 16:33N 30°03' W 090°34'0 0.0
2014-Apr-10 15:33N 30°03' W 090°34'0 0.0
2014-Apr-10 14:33N 30°03' W 090°34'0 0.0
2014-Apr-10 13:33N 30°03' W 090°34'0 0.0
2014-Apr-10 12:33N 30°03' W 090°34'0 0.0
2014-Apr-10 11:33N 30°03' W 090°34'0 0.0
2014-Apr-10 10:33N 30°03' W 090°34'0 0.0
2014-Apr-10 09:34N 30°03' W 090°34'0 0.0
2014-Apr-10 08:33N 30°03' W 090°34'0 0.0
2014-Apr-10 07:33N 30°03' W 090°34'0 0.0
2014-Apr-10 06:33N 30°03' W 090°34'0 0.0
2014-Apr-10 05:33N 30°03' W 090°34'0 0.0
2014-Apr-10 04:33N 30°03' W 090°34'0 0.0
2014-Apr-10 03:33N 30°03' W 090°34'0 0.0
2014-Apr-10 02:33N 30°03' W 090°34'0 0.0
2014-Apr-10 01:33N 30°03' W 090°34'0 0.0
2014-Apr-10 00:33N 30°03' W 090°34'1 0.9
2014-Apr-09 23:33N 30°03' W 090°35'1 0.9
2014-Apr-09 22:33N 30°03' W 090°34'0 0.0
2014-Apr-09 21:33N 30°03' W 090°34'0 0.0
2014-Apr-09 20:33N 30°03' W 090°34'0 0.0
2014-Apr-09 19:33N 30°03' W 090°34'0 0.0
2014-Apr-09 18:33N 30°03' W 090°34'1 0.8
2014-Apr-09 17:24N 30°03' W 090°35'0 0.0
2014-Apr-09 16:33N 30°03' W 090°35'12 2.3
2014-Apr-09 11:16N 29°57' W 090°23'0 0.0
2014-Apr-09 10:33N 29°57' W 090°23'0 0.0
2014-Apr-09 09:21N 29°57' W 090°23'0 0.0
2014-Apr-09 08:33N 29°57' W 090°23'0 0.0
2014-Apr-09 07:30N 29°57' W 090°23'0 0.0
2014-Apr-09 06:15N 29°57' W 090°23'0 0.0
2014-Apr-09 05:31N 29°57' W 090°23'0 0.0
2014-Apr-09 04:06N 29°57' W 090°23'0 0.0
2014-Apr-09 03:21N 29°57' W 090°23'0 0.0
2014-Apr-08 11:33N 29°57' W 090°23'0 0.0
2014-Apr-08 10:33N 29°57' W 090°23'0 0.0
2014-Apr-08 09:33N 29°57' W 090°23'0 0.0
2014-Apr-08 08:31N 29°57' W 090°23'4 4.2
2014-Apr-08 07:33N 29°60' W 090°26'1 1.1
2014-Apr-08 06:33N 29°60' W 090°25'1 0.4
2014-Apr-08 04:11N 29°60' W 090°26'1 0.6
2014-Apr-08 02:33N 29°60' W 090°27'8 7.9
2014-Apr-08 01:33N 30°03' W 090°35'1 0.7
2014-Apr-08 00:33N 30°03' W 090°35'2 2.1
2014-Apr-07 23:33N 30°03' W 090°32'1 1.1
2014-Apr-07 22:33N 30°03' W 090°33'2 1.7
2014-Apr-07 21:33N 30°03' W 090°35'0 0.0
2014-Apr-07 20:33N 30°03' W 090°35'2 1.7
2014-Apr-07 19:33N 30°03' W 090°33'0 0.0
2014-Apr-07 17:33N 30°03' W 090°33'0 0.0
2014-Apr-07 16:33N 30°03' W 090°33'0 0.0
2014-Apr-07 15:33N 30°03' W 090°33'0 0.0
2014-Apr-07 14:34N 30°03' W 090°33'0 0.0
2014-Apr-07 13:33N 30°03' W 090°33'0 0.0
2014-Apr-07 12:33N 30°03' W 090°33'0 0.0
2014-Apr-07 11:33N 30°03' W 090°33'0 0.0
2014-Apr-07 10:34N 30°03' W 090°33'0 0.0
2014-Apr-07 09:34N 30°03' W 090°33'0 0.0
2014-Apr-07 08:34N 30°03' W 090°33'0 0.0
2014-Apr-07 07:34N 30°03' W 090°33'0 0.0
2014-Apr-07 06:33N 30°03' W 090°33'0 0.0
2014-Apr-07 05:33N 30°03' W 090°33'0 0.0
2014-Apr-07 04:33N 30°03' W 090°33'0 0.0
2014-Apr-07 03:33N 30°03' W 090°33'0 0.0
2014-Apr-07 02:33N 30°03' W 090°33'0 0.0
2014-Apr-07 01:33N 30°03' W 090°33'0 0.0
2014-Apr-07 00:33N 30°03' W 090°33'0 0.0
2014-Apr-06 23:33N 30°03' W 090°33'0 0.0
2014-Apr-06 22:33N 30°03' W 090°33'  

Dump ship's entire track history

sailing weather and tide predictions

Vera Bisso — WDC3027 — position and weather